createdAt,value
2023-12-27T00:04:30.509Z,101141.25
2023-12-27T00:09:27.079Z,101147.69
2023-12-27T00:14:23.599Z,101151.78
2023-12-27T00:19:21.058Z,101169.41
2023-12-27T00:24:17.780Z,101170.09
2023-12-27T00:29:14.349Z,101181.13
2023-12-27T00:34:11.090Z,101177.84
2023-12-27T00:39:10.896Z,101177.66
2023-12-27T00:44:07.478Z,101198.84
2023-12-27T00:49:04.200Z,101206.69
2023-12-27T00:54:01.004Z,101200.44
2023-12-27T00:58:58.637Z,101198.88
2023-12-27T01:03:55.369Z,101189.53
2023-12-27T01:08:52.058Z,101216.91
2023-12-27T01:13:49.029Z,101216.56
2023-12-27T01:18:46.293Z,101221.38
2023-12-27T01:23:42.930Z,101219.47
2023-12-27T01:28:39.503Z,101236.13
2023-12-27T01:33:36.317Z,101245.59
2023-12-27T01:38:33.587Z,101262.88
2023-12-27T01:43:30.223Z,101263.84
2023-12-27T01:48:26.875Z,101266.16
2023-12-27T01:53:24.639Z,101262.13
2023-12-27T01:58:22.722Z,101267.63
2023-12-27T02:03:22.398Z,101256.50
2023-12-27T02:08:20.863Z,101255.66
2023-12-27T02:13:20.265Z,101261.47
2023-12-27T02:18:17.715Z,101261.59
2023-12-27T02:23:19.079Z,101262.94
2023-12-27T02:28:16.355Z,101269.38
2023-12-27T02:33:13.141Z,101280.84
2023-12-27T02:38:09.836Z,101291.47
2023-12-27T02:43:06.405Z,101284.38
2023-12-27T02:48:05.412Z,101281.50
2023-12-27T02:53:02.168Z,101267.44
2023-12-27T02:57:58.808Z,101268.34
2023-12-27T03:02:55.406Z,101266.41
2023-12-27T03:07:52.748Z,101272.63
2023-12-27T03:12:49.293Z,101287.03
2023-12-27T03:17:45.972Z,101294.97
2023-12-27T03:22:42.554Z,101313.41
2023-12-27T03:27:40.110Z,101325.16
2023-12-27T03:32:36.779Z,101341.38
2023-12-27T03:37:33.378Z,101323.19
2023-12-27T03:42:30.430Z,101320.47
2023-12-27T03:47:27.688Z,101317.84
2023-12-27T03:52:24.556Z,101341.19
2023-12-27T03:57:22.043Z,101353.84
2023-12-27T04:02:18.615Z,101355.31
2023-12-27T04:07:15.869Z,101351.06
2023-12-27T04:12:12.545Z,101348.22
2023-12-27T04:17:09.281Z,101360.09
2023-12-27T04:22:06.292Z,101338.72
2023-12-27T04:27:03.784Z,101370.91
2023-12-27T04:32:00.412Z,101375.03
2023-12-27T04:36:56.973Z,101382.78
2023-12-27T04:41:53.489Z,101380.84
2023-12-27T04:46:50.724Z,101398.34
2023-12-27T04:51:47.357Z,101402.47
2023-12-27T04:56:43.887Z,101411.34
2023-12-27T05:01:40.522Z,101411.63
2023-12-27T05:06:37.777Z,101422.72
2023-12-27T05:11:34.556Z,101417.72
2023-12-27T05:16:31.083Z,101416.44
2023-12-27T05:21:27.687Z,101429.16
2023-12-27T05:26:24.885Z,101434.94
2023-12-27T05:31:21.967Z,101440.16
2023-12-27T05:36:18.472Z,101459.72
2023-12-27T05:41:15.010Z,101469.69
2023-12-27T05:46:12.284Z,101483.56
2023-12-27T05:51:08.920Z,101493.22
2023-12-27T05:56:07.136Z,101499.00
2023-12-27T06:01:03.902Z,101500.75
2023-12-27T06:06:01.691Z,101519.75
2023-12-27T06:10:59.443Z,101525.44
2023-12-27T06:15:56.236Z,101540.34
2023-12-27T06:20:53.162Z,101556.47
2023-12-27T06:25:50.329Z,101551.75
2023-12-27T06:30:47.785Z,101553.44
2023-12-27T06:35:44.441Z,101557.28
2023-12-27T06:40:41.205Z,101558.56
2023-12-27T06:45:38.442Z,101579.66
2023-12-27T06:50:43.731Z,101592.53
2023-12-27T06:55:40.435Z,101599.66
2023-12-27T07:00:39.010Z,101608.13
2023-12-27T07:05:37.346Z,101613.34
2023-12-27T07:10:33.892Z,101620.06
2023-12-27T07:15:30.576Z,101627.13
2023-12-27T07:20:27.149Z,101627.63
2023-12-27T07:25:25.720Z,101640.25
2023-12-27T07:30:22.421Z,101653.34
2023-12-27T07:35:19.165Z,101661.28
2023-12-27T07:40:16.440Z,101669.75
2023-12-27T07:45:13.715Z,101662.66
2023-12-27T07:50:10.510Z,101677.16
2023-12-27T07:55:07.547Z,101676.03
2023-12-27T08:00:07.634Z,101688.13
2023-12-27T08:05:09.578Z,101696.50
2023-12-27T08:10:06.921Z,101701.09
2023-12-27T08:15:04.116Z,101701.16
2023-12-27T08:20:04.798Z,101703.53
2023-12-27T08:25:02.027Z,101724.66
2023-12-27T08:29:59.085Z,101735.50
2023-12-27T08:34:55.800Z,101732.88
2023-12-27T08:39:52.425Z,101735.63
2023-12-27T08:44:49.583Z,101733.19
2023-12-27T08:49:46.208Z,101751.72
2023-12-27T08:54:42.927Z,101751.38
2023-12-27T08:59:39.490Z,101752.75
2023-12-27T09:04:36.919Z,101751.59
2023-12-27T09:09:33.588Z,101734.44
2023-12-27T09:14:30.156Z,101734.38
2023-12-27T09:19:26.781Z,101730.38
2023-12-27T09:24:24.137Z,101718.69
2023-12-27T09:29:21.278Z,101726.03
2023-12-27T09:34:18.023Z,101751.91
2023-12-27T09:39:15.088Z,101698.63
2023-12-27T09:44:12.544Z,101717.28
2023-12-27T09:49:09.868Z,101713.91
2023-12-27T09:54:07.235Z,101720.50
2023-12-27T09:59:06.523Z,101729.97
2023-12-27T10:04:07.602Z,101708.75
2023-12-27T10:09:05.788Z,101704.66
2023-12-27T10:14:05.114Z,101712.88
2023-12-27T10:19:01.848Z,101720.94
2023-12-27T10:24:03.839Z,101730.09
2023-12-27T10:29:01.293Z,101741.66
2023-12-27T10:34:03.202Z,101736.13
2023-12-27T10:39:03.077Z,101726.66
2023-12-27T10:44:01.060Z,101734.38
2023-12-27T10:49:01.723Z,101727.13
2023-12-27T10:53:59.466Z,101718.94
2023-12-27T10:58:56.199Z,101711.50
2023-12-27T11:03:54.071Z,101692.31
2023-12-27T11:08:52.903Z,101705.63
2023-12-27T11:13:50.083Z,101699.09
2023-12-27T11:18:47.338Z,101687.13
2023-12-27T11:23:44.748Z,101697.28
2023-12-27T11:28:42.441Z,101697.69
2023-12-27T11:33:39.174Z,101700.47
2023-12-27T11:38:37.160Z,101715.25
2023-12-27T11:43:51.438Z,101720.38
2023-12-27T11:48:48.157Z,101715.28
2023-12-27T11:53:45.033Z,101709.69
2023-12-27T11:58:41.714Z,101726.56
2023-12-27T12:03:39.588Z,101725.66
2023-12-27T12:08:41.462Z,101736.81
2023-12-27T12:13:39.362Z,101738.16
2023-12-27T12:18:37.629Z,101738.81
2023-12-27T12:23:35.253Z,101755.88
2023-12-27T12:28:31.879Z,101750.50
2023-12-27T12:33:28.537Z,101754.19
2023-12-27T12:38:25.157Z,101743.97
2023-12-27T12:43:22.412Z,101737.72
2023-12-27T12:48:19.279Z,101745.34
2023-12-27T12:53:16.227Z,101759.34
2023-12-27T12:58:12.945Z,101760.72
2023-12-27T13:03:10.443Z,101755.38
2023-12-27T13:08:07.378Z,101752.97
2023-12-27T13:13:04.080Z,101766.34
2023-12-27T13:18:01.057Z,101773.78
2023-12-27T13:22:58.547Z,101782.63
2023-12-27T13:28:02.722Z,101784.13
2023-12-27T13:33:04.096Z,101793.03
2023-12-27T13:38:01.645Z,101791.31
2023-12-27T13:42:58.317Z,101798.09
2023-12-27T13:47:55.071Z,101798.31
2023-12-27T13:52:51.863Z,101796.56
2023-12-27T13:57:49.830Z,101804.22
2023-12-27T14:02:47.188Z,101812.38
2023-12-27T14:07:43.864Z,101824.97
2023-12-27T14:12:42.902Z,101821.03
2023-12-27T14:17:41.003Z,101823.53
2023-12-27T14:22:37.819Z,101824.53
2023-12-27T14:27:34.672Z,101830.94
2023-12-27T14:32:31.346Z,101829.09
2023-12-27T14:37:28.539Z,101834.78
2023-12-27T14:42:25.296Z,101849.28
2023-12-27T14:47:21.938Z,101860.19
2023-12-27T14:52:18.662Z,101868.84
2023-12-27T14:57:20.859Z,101869.28
2023-12-27T15:02:17.382Z,101862.56
2023-12-27T15:07:13.963Z,101880.16
2023-12-27T15:12:10.553Z,101896.34
2023-12-27T15:17:07.836Z,101896.50
2023-12-27T15:22:04.649Z,101897.53
2023-12-27T15:27:01.126Z,101909.22
2023-12-27T15:31:57.780Z,101924.22
2023-12-27T15:36:55.108Z,101927.81
2023-12-27T15:41:51.671Z,101931.63
2023-12-27T15:46:48.285Z,101933.50
2023-12-27T15:51:46.951Z,101941.09
2023-12-27T15:56:45.467Z,101950.91
2023-12-27T16:01:43.388Z,101951.63
2023-12-27T16:06:40.862Z,101959.50
2023-12-27T16:11:40.572Z,101966.69
2023-12-27T16:16:38.140Z,101973.41
2023-12-27T16:21:35.024Z,101972.94
2023-12-27T16:26:31.840Z,101971.63
2023-12-27T16:31:28.654Z,101967.75
2023-12-27T16:36:26.282Z,101963.13
2023-12-27T16:41:23.150Z,101971.34
2023-12-27T16:46:19.781Z,101976.84
2023-12-27T16:51:16.478Z,101984.13
2023-12-27T16:56:15.477Z,101991.13
2023-12-27T17:01:12.579Z,101991.13
2023-12-27T17:06:09.959Z,101982.25
2023-12-27T17:11:07.898Z,101979.41
2023-12-27T17:16:05.942Z,102000.06
2023-12-27T17:21:04.011Z,102010.63
2023-12-27T17:26:00.600Z,102022.94
2023-12-27T17:30:57.252Z,102035.34
2023-12-27T17:35:56.064Z,102026.63
2023-12-27T17:40:52.735Z,102033.19
2023-12-27T17:45:49.622Z,102038.25
2023-12-27T17:50:46.336Z,102042.91
2023-12-27T17:55:44.128Z,102042.47
2023-12-27T18:00:44.747Z,102052.84
2023-12-27T18:05:42.349Z,102045.97
2023-12-27T18:10:39.237Z,102058.16
2023-12-27T18:15:38.413Z,102068.75
2023-12-27T18:20:35.184Z,102074.31
2023-12-27T18:25:31.821Z,102076.47
2023-12-27T18:30:28.727Z,102079.44
2023-12-27T18:35:26.094Z,102078.56
2023-12-27T18:40:22.638Z,102086.81
2023-12-27T18:45:19.289Z,102086.72
2023-12-27T18:50:16.181Z,102087.13
2023-12-27T18:55:13.630Z,102100.00
2023-12-27T19:00:10.675Z,102097.44
2023-12-27T19:05:07.689Z,102110.03
2023-12-27T19:10:04.657Z,102115.34
2023-12-27T19:15:03.333Z,102125.94
2023-12-27T19:20:00.739Z,102122.91
2023-12-27T19:24:57.589Z,102127.50
2023-12-27T19:29:54.197Z,102131.72
2023-12-27T19:34:51.578Z,102150.06
2023-12-27T19:39:49.204Z,102158.13
2023-12-27T19:44:45.905Z,102164.22
2023-12-27T19:49:42.636Z,102165.06
2023-12-27T19:54:40.543Z,102171.88
2023-12-27T19:59:38.055Z,102192.06
2023-12-27T20:04:34.737Z,102202.63
2023-12-27T20:09:31.381Z,102208.75
2023-12-27T20:14:28.625Z,102213.97
2023-12-27T20:19:25.380Z,102223.53
2023-12-27T20:24:27.850Z,102235.63
2023-12-27T20:29:24.376Z,102246.13
2023-12-27T20:34:21.812Z,102231.94
2023-12-27T20:39:18.463Z,102230.19
2023-12-27T20:44:15.082Z,102244.03
2023-12-27T20:49:11.904Z,102249.19
2023-12-27T20:54:09.502Z,102254.50
2023-12-27T20:59:09.517Z,102260.56
2023-12-27T21:04:09.142Z,102267.47
2023-12-27T21:09:05.868Z,102284.31
2023-12-27T21:14:03.142Z,102286.19
2023-12-27T21:18:59.816Z,102291.53
2023-12-27T21:23:59.534Z,102287.91
2023-12-27T21:28:56.048Z,102294.09
2023-12-27T21:33:54.402Z,102271.59
2023-12-27T21:38:52.748Z,102289.72
2023-12-27T21:43:49.667Z,102302.00
2023-12-27T21:48:46.249Z,102276.94
2023-12-27T21:53:43.555Z,102291.59
2023-12-27T21:58:40.115Z,102293.25
2023-12-27T22:03:36.773Z,102300.53
2023-12-27T22:08:34.785Z,102297.03
2023-12-27T22:13:33.183Z,102303.06
2023-12-27T22:18:30.083Z,102298.66
2023-12-27T22:23:27.062Z,102298.75
2023-12-27T22:28:23.589Z,102298.72
2023-12-27T22:33:20.982Z,102298.88
2023-12-27T22:38:17.572Z,102299.66
2023-12-27T22:43:14.030Z,102303.09
2023-12-27T22:48:10.640Z,102296.13
2023-12-27T22:53:07.979Z,102299.53
2023-12-27T22:58:04.508Z,102315.34
2023-12-27T23:03:01.045Z,102308.31
2023-12-27T23:07:57.871Z,102309.19
2023-12-27T23:12:55.394Z,102307.63
2023-12-27T23:17:52.300Z,102310.16
2023-12-27T23:22:48.889Z,102324.84
2023-12-27T23:27:45.485Z,102330.63
2023-12-27T23:32:48.432Z,102341.81
2023-12-27T23:37:47.905Z,102332.88
2023-12-27T23:42:45.121Z,102344.34
2023-12-27T23:47:42.524Z,102345.94
2023-12-27T23:52:39.164Z,102344.03
2023-12-27T23:57:35.735Z,102345.84
